createdAt,value
2023-05-19T00:02:44.134Z,2.72
2023-05-19T00:07:45.870Z,2.80
2023-05-19T00:12:45.328Z,2.92
2023-05-19T00:17:44.236Z,2.83
2023-05-19T00:22:45.161Z,3.85
2023-05-19T00:27:44.301Z,2.63
2023-05-19T00:32:47.703Z,2.80
2023-05-19T00:37:47.023Z,2.75
2023-05-19T00:42:45.988Z,2.83
2023-05-19T00:47:44.886Z,3.50
2023-05-19T00:52:44.124Z,2.88
2023-05-19T00:57:44.458Z,4.60
2023-05-19T01:02:43.718Z,3.47
2023-05-19T01:07:43.291Z,3.40
2023-05-19T01:12:42.291Z,2.90
2023-05-19T01:17:51.737Z,2.85
2023-05-19T01:22:56.776Z,3.10
2023-05-19T01:28:22.888Z,2.85
2023-05-19T01:33:23.395Z,2.55
2023-05-19T01:38:23.523Z,3.00
2023-05-19T01:43:26.030Z,2.95
2023-05-19T01:48:25.318Z,3.58
2023-05-19T01:53:27.331Z,3.05
2023-05-19T01:58:45.542Z,3.00
2023-05-19T02:04:21.516Z,4.00
2023-05-19T02:09:25.506Z,2.58
2023-05-19T02:14:45.727Z,3.15
2023-05-19T02:19:44.852Z,2.92
2023-05-19T02:24:46.600Z,2.80
2023-05-19T02:29:45.412Z,3.30
2023-05-19T02:34:45.673Z,2.72
2023-05-19T02:39:45.183Z,3.78
2023-05-19T02:44:44.567Z,3.38
2023-05-19T02:49:45.127Z,3.10
2023-05-19T02:54:44.164Z,3.85
2023-05-19T02:59:43.213Z,3.42
2023-05-19T03:04:43.045Z,2.90
2023-05-19T03:09:41.918Z,3.42
2023-05-19T03:14:41.197Z,3.20
2023-05-19T03:19:40.185Z,2.90
2023-05-19T03:24:39.606Z,2.88
2023-05-19T03:29:39.572Z,3.08
2023-05-19T03:34:38.370Z,3.30
2023-05-19T03:39:37.787Z,3.10
2023-05-19T03:44:36.704Z,3.50
2023-05-19T03:49:35.875Z,3.47
2023-05-19T03:54:53.749Z,3.35
2023-05-19T03:59:53.058Z,2.97
2023-05-19T04:04:52.588Z,3.20
2023-05-19T04:09:51.695Z,3.30
2023-05-19T04:14:50.597Z,2.83
2023-05-19T04:19:49.404Z,3.13
2023-05-19T04:24:48.961Z,2.92
2023-05-19T04:29:48.451Z,1.27
2023-05-19T04:34:48.008Z,2.72
2023-05-19T04:39:54.258Z,3.00
2023-05-19T04:44:56.812Z,3.78
2023-05-19T04:50:00.853Z,3.92
2023-05-19T04:54:59.852Z,3.53
2023-05-19T05:00:00.427Z,3.15
2023-05-19T05:05:09.507Z,3.53
2023-05-19T05:10:09.314Z,2.83
2023-05-19T05:15:09.187Z,3.22
2023-05-19T05:20:09.886Z,4.30
2023-05-19T05:25:09.607Z,4.40
2023-05-19T05:30:09.558Z,4.10
2023-05-19T05:35:10.141Z,2.95
2023-05-19T05:40:12.892Z,3.40
2023-05-19T05:45:12.530Z,3.72
2023-05-19T05:50:13.587Z,3.20
2023-05-19T05:55:14.043Z,3.38
2023-05-19T06:00:16.270Z,3.53
2023-05-19T06:05:15.369Z,3.13
2023-05-19T06:10:15.171Z,3.58
2023-05-19T06:15:14.329Z,3.13
2023-05-19T06:20:39.554Z,3.28
2023-05-19T06:25:38.761Z,2.90
2023-05-19T06:30:37.855Z,3.20
2023-05-19T06:35:55.515Z,2.75
2023-05-19T06:40:54.666Z,2.88
2023-05-19T06:45:53.545Z,3.38
2023-05-19T06:50:54.097Z,2.78
2023-05-19T06:55:59.504Z,3.10
2023-05-19T07:01:00.949Z,2.47
2023-05-19T07:06:08.127Z,5.15
2023-05-19T07:16:07.151Z,3.40
2023-05-19T07:21:07.354Z,3.50
2023-05-19T07:26:06.957Z,3.85
2023-05-19T07:31:05.950Z,2.83
2023-05-19T07:36:04.902Z,3.05
2023-05-19T07:41:05.778Z,3.30
2023-05-19T07:46:06.090Z,3.28
2023-05-19T07:51:05.324Z,3.35
2023-05-19T07:56:04.776Z,2.30
2023-05-19T08:01:03.680Z,2.92
2023-05-19T08:06:02.981Z,2.90
2023-05-19T08:11:04.314Z,3.25
2023-05-19T08:16:03.284Z,2.17
2023-05-19T08:21:02.179Z,2.58
2023-05-19T08:26:02.344Z,2.00
2023-05-19T08:31:01.588Z,1.90
2023-05-19T08:36:00.987Z,1.58
2023-05-19T08:41:00.180Z,1.70
2023-05-19T08:46:00.770Z,2.65
2023-05-19T08:51:25.082Z,2.80
2023-05-19T08:56:25.335Z,2.53
2023-05-19T09:01:24.587Z,2.35
2023-05-19T09:06:24.079Z,1.92
2023-05-19T09:11:23.391Z,2.95
2023-05-19T09:16:27.653Z,2.22
2023-05-19T09:21:31.366Z,2.10
2023-05-19T09:26:41.169Z,2.20
2023-05-19T09:31:40.116Z,1.80
2023-05-19T09:36:42.422Z,2.33
2023-05-19T09:41:41.894Z,2.15
2023-05-19T09:46:48.275Z,2.67
2023-05-19T09:51:49.625Z,2.00
2023-05-19T09:56:58.625Z,2.58
2023-05-19T10:01:59.450Z,2.88
2023-05-19T10:06:59.825Z,2.55
2023-05-19T10:11:59.425Z,2.42
2023-05-19T10:16:59.446Z,2.20
2023-05-19T10:21:58.406Z,2.33
2023-05-19T10:27:02.483Z,2.33
2023-05-19T10:32:08.346Z,2.13
2023-05-19T10:37:10.253Z,2.28
2023-05-19T10:42:44.635Z,2.10
2023-05-19T10:47:44.506Z,2.05
2023-05-19T10:52:44.727Z,2.22
2023-05-19T10:58:00.500Z,2.60
2023-05-19T11:03:16.533Z,2.35
2023-05-19T11:08:17.487Z,2.10
2023-05-19T11:13:23.478Z,2.50
2023-05-19T11:18:22.469Z,2.58
2023-05-19T11:23:21.849Z,1.92
2023-05-19T11:28:29.607Z,2.20
2023-05-19T11:33:28.685Z,2.00
2023-05-19T11:38:30.186Z,1.85
2023-05-19T11:43:29.370Z,1.92
2023-05-19T11:48:30.123Z,2.05
2023-05-19T11:53:33.276Z,2.13
2023-05-19T11:58:33.652Z,2.50
2023-05-19T12:03:33.183Z,2.67
2023-05-19T12:08:32.323Z,2.45
2023-05-19T12:13:31.260Z,2.25
2023-05-19T12:18:32.114Z,3.00
2023-05-19T12:23:32.303Z,2.85
2023-05-19T12:28:31.368Z,2.35
2023-05-19T12:33:33.659Z,2.50
2023-05-19T12:38:37.410Z,3.15
2023-05-19T12:43:38.218Z,2.63
2023-05-19T12:48:41.851Z,2.88
2023-05-19T12:53:42.535Z,2.70
2023-05-19T12:58:42.148Z,2.42
2023-05-19T13:03:44.146Z,3.33
2023-05-19T13:08:43.054Z,3.10
2023-05-19T13:13:42.034Z,2.92
2023-05-19T13:18:40.985Z,2.83
2023-05-19T13:23:39.896Z,3.22
2023-05-19T13:28:38.889Z,2.97
2023-05-19T13:33:37.760Z,3.53
2023-05-19T13:38:36.569Z,3.10
2023-05-19T13:43:35.582Z,2.70
2023-05-19T13:48:34.567Z,2.90
2023-05-19T13:53:34.659Z,3.15
2023-05-19T13:58:33.714Z,3.15
2023-05-19T14:03:32.544Z,3.47
2023-05-19T14:08:32.447Z,2.97
2023-05-19T14:13:34.455Z,3.38
2023-05-19T14:18:36.171Z,3.50
2023-05-19T14:23:35.053Z,3.97
2023-05-19T14:28:33.967Z,6.35
2023-05-19T14:33:35.263Z,4.32
2023-05-19T14:38:34.696Z,3.80
2023-05-19T14:43:33.925Z,4.13
2023-05-19T14:48:32.826Z,4.30
2023-05-19T14:53:31.737Z,4.47
2023-05-19T14:58:30.657Z,3.60
2023-05-19T15:03:29.681Z,3.25
2023-05-19T15:08:28.664Z,3.58
2023-05-19T15:13:27.719Z,3.17
2023-05-19T15:18:26.673Z,2.78
2023-05-19T15:23:25.613Z,3.13
2023-05-19T15:28:24.680Z,3.30
2023-05-19T15:33:23.587Z,3.35
2023-05-19T15:38:22.521Z,3.13
2023-05-19T15:43:21.902Z,5.13
2023-05-19T15:48:20.879Z,19.55
2023-05-19T15:53:20.292Z,6.50
2023-05-19T15:58:19.158Z,7.38
2023-05-19T16:03:18.139Z,4.15
2023-05-19T16:08:17.090Z,4.78
2023-05-19T16:13:15.924Z,4.15
2023-05-19T16:18:15.959Z,4.25
2023-05-19T16:23:14.833Z,4.47
2023-05-19T16:28:14.670Z,4.30
2023-05-19T16:33:13.548Z,4.45
2023-05-19T16:38:12.385Z,4.35
2023-05-19T16:43:11.387Z,4.20
2023-05-19T16:48:10.468Z,3.67
2023-05-19T16:53:09.495Z,4.10
2023-05-19T16:58:08.399Z,3.97
2023-05-19T17:03:07.379Z,4.63
2023-05-19T17:08:06.480Z,3.78
2023-05-19T17:13:05.872Z,4.32
2023-05-19T17:18:05.846Z,3.60
2023-05-19T17:23:04.790Z,3.92
2023-05-19T17:28:03.869Z,4.00
2023-05-19T17:33:03.800Z,3.63
2023-05-19T17:38:02.764Z,3.60
2023-05-19T17:43:01.599Z,4.03
2023-05-19T17:48:00.494Z,4.18
2023-05-19T17:52:59.687Z,4.32
2023-05-19T17:57:58.820Z,3.72
2023-05-19T18:02:59.212Z,3.78
2023-05-19T18:07:58.392Z,4.30
2023-05-19T18:12:57.526Z,3.55
2023-05-19T18:17:56.503Z,3.42
2023-05-19T18:22:55.580Z,3.72
2023-05-19T18:27:55.941Z,4.40
2023-05-19T18:32:54.739Z,4.43
2023-05-19T18:37:56.533Z,4.65
2023-05-19T18:42:55.396Z,4.28
2023-05-19T18:47:54.551Z,3.97
2023-05-19T18:52:53.682Z,4.25
2023-05-19T18:57:54.147Z,4.28
2023-05-19T19:02:53.033Z,3.83
2023-05-19T19:07:52.480Z,4.07
2023-05-19T19:12:51.361Z,4.18
2023-05-19T19:17:50.192Z,4.43
2023-05-19T19:22:48.970Z,3.78
2023-05-19T19:27:47.858Z,4.50
2023-05-19T19:32:46.762Z,5.35
2023-05-19T19:37:47.132Z,5.22
2023-05-19T19:42:46.158Z,5.95
2023-05-19T19:47:45.097Z,5.20
2023-05-19T19:52:43.995Z,6.47
2023-05-19T19:57:45.014Z,5.50
2023-05-19T20:03:02.930Z,5.93
2023-05-19T20:08:02.904Z,5.43
2023-05-19T20:13:02.232Z,6.28
2023-05-19T20:18:01.199Z,6.22
2023-05-19T20:23:07.654Z,6.63
2023-05-19T20:28:06.611Z,6.78
2023-05-19T20:33:05.571Z,6.05
2023-05-19T20:38:04.938Z,7.15
2023-05-19T20:43:03.860Z,7.75
2023-05-19T20:48:03.890Z,7.45
2023-05-19T20:53:03.043Z,7.78
2023-05-19T20:58:02.056Z,7.43
2023-05-19T21:03:01.488Z,7.55
2023-05-19T21:08:00.692Z,7.95
2023-05-19T21:12:59.548Z,7.63
2023-05-19T21:17:58.576Z,7.45
2023-05-19T21:22:57.611Z,7.68
2023-05-19T21:27:57.935Z,7.80
2023-05-19T21:32:57.344Z,7.88
2023-05-19T21:37:56.570Z,7.95
2023-05-19T21:42:55.455Z,7.82
2023-05-19T21:47:54.320Z,7.95
2023-05-19T21:52:53.135Z,6.75
2023-05-19T21:57:52.248Z,8.07
2023-05-19T22:02:51.598Z,8.70
2023-05-19T22:07:50.592Z,7.60
2023-05-19T22:12:49.594Z,7.65
2023-05-19T22:17:48.511Z,9.05
2023-05-19T22:22:47.400Z,8.27
2023-05-19T22:27:46.330Z,8.27
2023-05-19T22:32:45.465Z,8.23
2023-05-19T22:37:44.996Z,8.90
2023-05-19T22:42:44.106Z,7.90
2023-05-19T22:47:43.023Z,8.88
2023-05-19T22:52:41.833Z,7.45
2023-05-19T22:57:40.692Z,8.68
2023-05-19T23:02:41.613Z,9.65
2023-05-19T23:07:40.729Z,8.65
2023-05-19T23:12:40.141Z,9.30
2023-05-19T23:17:39.120Z,9.00
2023-05-19T23:22:37.960Z,9.80
2023-05-19T23:27:43.402Z,10.30
2023-05-19T23:32:44.441Z,10.68
2023-05-19T23:37:43.600Z,9.20
2023-05-19T23:42:44.326Z,13.45
2023-05-19T23:47:43.181Z,10.48
2023-05-19T23:52:42.054Z,10.65
2023-05-19T23:57:41.807Z,11.20
